createdAt,value
2022-08-10T00:00:17.271Z,1019.28
2022-08-10T00:01:17.328Z,1019.26
2022-08-10T00:02:17.288Z,1019.28
2022-08-10T00:03:17.230Z,1019.34
2022-08-10T00:04:21.057Z,1019.31
2022-08-10T00:05:17.200Z,1019.26
2022-08-10T00:06:17.180Z,1019.29
2022-08-10T00:07:17.203Z,1019.27
2022-08-10T00:08:23.712Z,1019.30
2022-08-10T00:09:18.138Z,1019.34
2022-08-10T00:10:17.148Z,1019.33
2022-08-10T00:11:17.148Z,1019.29
2022-08-10T00:12:17.162Z,1019.35
2022-08-10T00:13:17.112Z,1019.34
2022-08-10T00:14:17.091Z,1019.33
2022-08-10T00:15:52.373Z,1019.32
2022-08-10T00:16:18.060Z,1019.33
2022-08-10T00:17:17.114Z,1019.32
2022-08-10T00:18:31.585Z,1019.34
2022-08-10T00:19:18.256Z,1019.34
2022-08-10T00:20:17.020Z,1019.34
2022-08-10T00:21:17.023Z,1019.34
2022-08-10T00:22:17.205Z,1019.32
2022-08-10T00:23:16.983Z,1019.31
2022-08-10T00:24:16.974Z,1019.27
2022-08-10T00:25:16.965Z,1019.26
2022-08-10T00:26:16.958Z,1019.23
2022-08-10T00:27:52.984Z,1019.21
2022-08-10T00:28:17.954Z,1019.21
2022-08-10T00:29:16.926Z,1019.22
2022-08-10T00:30:16.919Z,1019.22
2022-08-10T00:31:16.899Z,1019.17
2022-08-10T00:32:16.926Z,1019.19
2022-08-10T00:33:16.875Z,1019.18
2022-08-10T00:34:16.858Z,1019.23
2022-08-10T00:35:16.862Z,1019.23
2022-08-10T00:36:16.826Z,1019.21
2022-08-10T00:37:16.876Z,1019.21
2022-08-10T00:38:16.805Z,1019.21
2022-08-10T00:39:16.858Z,1019.21
2022-08-10T00:40:16.816Z,1019.23
2022-08-10T00:41:16.782Z,1019.20
2022-08-10T00:42:16.817Z,1019.22
2022-08-10T00:43:23.380Z,1019.19
2022-08-10T00:44:17.766Z,1019.23
2022-08-10T00:45:16.759Z,1019.20
2022-08-10T00:46:16.735Z,1019.17
2022-08-10T00:47:36.452Z,1019.18
2022-08-10T00:48:17.702Z,1019.21
2022-08-10T00:49:16.694Z,1019.22
2022-08-10T00:50:16.690Z,1019.20
2022-08-10T00:51:16.664Z,1019.20
2022-08-10T00:52:16.693Z,1019.21
2022-08-10T00:53:16.648Z,1019.20
2022-08-10T00:54:24.343Z,1019.17
2022-08-10T00:55:17.633Z,1019.14
2022-08-10T00:57:12.181Z,1019.16
2022-08-10T00:57:18.739Z,1019.16
2022-08-10T00:58:16.577Z,1019.17
2022-08-10T00:59:16.585Z,1019.17
2022-08-10T01:00:16.568Z,1019.14
2022-08-10T01:02:09.205Z,1019.14
2022-08-10T01:02:17.670Z,1019.16
2022-08-10T01:03:16.550Z,1019.15
2022-08-10T01:04:57.228Z,1019.21
2022-08-10T01:05:17.492Z,1019.22
2022-08-10T01:06:16.495Z,1019.21
2022-08-10T01:07:16.530Z,1019.21
2022-08-10T01:08:16.496Z,1019.19
2022-08-10T01:09:16.461Z,1019.24
2022-08-10T01:10:16.466Z,1019.20
2022-08-10T01:12:39.700Z,1019.21
2022-08-10T01:12:40.008Z,1019.24
2022-08-10T01:13:17.417Z,1019.22
2022-08-10T01:14:16.411Z,1019.21
2022-08-10T01:15:16.436Z,1019.18
2022-08-10T01:16:16.413Z,1019.20
2022-08-10T01:17:16.403Z,1019.19
2022-08-10T01:18:16.365Z,1019.18
2022-08-10T01:19:16.338Z,1019.22
2022-08-10T01:20:30.566Z,1019.17
2022-08-10T01:21:17.329Z,1019.23
2022-08-10T01:22:16.356Z,1019.24
2022-08-10T01:23:16.301Z,1019.27
2022-08-10T01:24:16.286Z,1019.23
2022-08-10T01:25:16.292Z,1019.23
2022-08-10T01:26:30.611Z,1019.22
2022-08-10T01:27:17.298Z,1019.25
2022-08-10T01:28:16.241Z,1019.20
2022-08-10T01:29:16.234Z,1019.18
2022-08-10T01:30:16.223Z,1019.17
2022-08-10T01:31:16.204Z,1019.14
2022-08-10T01:32:16.249Z,1019.13
2022-08-10T01:33:16.190Z,1019.14
2022-08-10T01:34:16.161Z,1019.14
2022-08-10T01:35:16.142Z,1019.10
2022-08-10T01:36:16.129Z,1019.11
2022-08-10T01:37:16.176Z,1019.09
2022-08-10T01:38:16.125Z,1019.08
2022-08-10T01:39:16.128Z,1019.05
2022-08-10T01:40:16.810Z,1019.07
2022-08-10T01:41:16.090Z,1019.06
2022-08-10T01:42:16.120Z,1019.07
2022-08-10T01:43:16.054Z,1019.00
2022-08-10T01:44:20.357Z,1019.07
2022-08-10T01:45:16.028Z,1019.05
2022-08-10T01:46:16.022Z,1019.09
2022-08-10T01:47:18.025Z,1019.08
2022-08-10T01:48:17.016Z,1019.06
2022-08-10T01:49:15.984Z,1019.06
2022-08-10T01:50:15.974Z,1019.09
2022-08-10T01:51:15.970Z,1019.05
2022-08-10T01:52:18.294Z,1019.07
2022-08-10T01:53:15.944Z,1019.02
2022-08-10T01:54:15.951Z,1019.04
2022-08-10T01:55:15.929Z,1019.07
2022-08-10T01:56:15.902Z,1019.05
2022-08-10T01:57:15.948Z,1019.05
2022-08-10T01:58:15.888Z,1019.07
2022-08-10T01:59:15.869Z,1019.05
2022-08-10T02:00:15.887Z,1019.06
2022-08-10T02:01:16.036Z,1019.04
2022-08-10T02:02:15.846Z,1019.04
2022-08-10T02:03:15.899Z,1019.08
2022-08-10T02:04:15.815Z,1019.04
2022-08-10T02:05:15.794Z,1019.08
2022-08-10T02:06:15.795Z,1019.09
2022-08-10T02:07:15.771Z,1019.07
2022-08-10T02:08:15.824Z,1019.08
2022-08-10T02:09:15.760Z,1019.09
2022-08-10T02:10:15.751Z,1019.14
2022-08-10T02:11:15.730Z,1019.10
2022-08-10T02:12:15.734Z,1019.14
2022-08-10T02:13:15.752Z,1019.14
2022-08-10T02:14:15.724Z,1019.13
2022-08-10T02:15:15.684Z,1019.16
2022-08-10T02:16:15.681Z,1019.12
2022-08-10T02:17:57.071Z,1019.12
2022-08-10T02:18:16.695Z,1019.14
2022-08-10T02:19:15.624Z,1019.18
2022-08-10T02:20:15.628Z,1019.19
2022-08-10T02:21:15.621Z,1019.18
2022-08-10T02:22:38.058Z,1019.16
2022-08-10T02:23:16.646Z,1019.17
2022-08-10T02:24:15.594Z,1019.17
2022-08-10T02:25:41.001Z,1019.13
2022-08-10T02:26:16.574Z,1019.09
2022-08-10T02:27:15.567Z,1019.12
2022-08-10T02:28:29.692Z,1019.12
2022-08-10T02:29:16.575Z,1019.10
2022-08-10T02:30:15.520Z,1019.10
2022-08-10T02:31:15.514Z,1019.07
2022-08-10T02:32:33.006Z,1019.10
2022-08-10T02:33:17.163Z,1019.14
2022-08-10T02:34:15.479Z,1019.11
2022-08-10T02:35:21.883Z,1019.16
2022-08-10T02:36:16.469Z,1019.15
2022-08-10T02:37:15.434Z,1019.15
2022-08-10T02:38:15.494Z,1019.11
2022-08-10T02:39:15.444Z,1019.14
2022-08-10T02:42:18.214Z,1019.10
2022-08-10T02:45:12.178Z,1019.11
2022-08-10T02:45:14.003Z,1019.14
2022-08-10T02:45:22.329Z,1019.12
2022-08-10T02:45:22.444Z,1019.11
2022-08-10T02:45:29.610Z,1019.11
2022-08-10T02:46:18.213Z,1019.13
2022-08-10T02:47:15.357Z,1019.11
2022-08-10T02:48:15.354Z,1019.13
2022-08-10T02:49:15.318Z,1019.09
2022-08-10T02:50:15.296Z,1019.12
2022-08-10T02:51:15.273Z,1019.13
2022-08-10T02:52:15.280Z,1019.14
2022-08-10T02:53:54.506Z,1019.20
2022-08-10T02:54:16.242Z,1019.21
2022-08-10T02:55:17.984Z,1019.21
2022-08-10T02:56:15.224Z,1019.25
2022-08-10T02:57:15.225Z,1019.28
2022-08-10T02:58:18.381Z,1019.29
2022-08-10T02:59:17.391Z,1019.31
2022-08-10T03:00:15.183Z,1019.29
2022-08-10T03:01:15.231Z,1019.33
2022-08-10T03:02:15.146Z,1019.33
2022-08-10T03:03:15.211Z,1019.37
2022-08-10T03:04:15.132Z,1019.35
2022-08-10T03:05:15.127Z,1019.35
2022-08-10T03:06:15.090Z,1019.34
2022-08-10T03:07:15.095Z,1019.33
2022-08-10T03:08:15.140Z,1019.34
2022-08-10T03:09:15.338Z,1019.29
2022-08-10T03:10:15.079Z,1019.29
2022-08-10T03:11:15.049Z,1019.33
2022-08-10T03:12:35.497Z,1019.37
2022-08-10T03:13:16.088Z,1019.35
2022-08-10T03:14:15.019Z,1019.33
2022-08-10T03:15:15.506Z,1019.36
2022-08-10T03:16:14.986Z,1019.31
2022-08-10T03:17:14.989Z,1019.32
2022-08-10T03:18:15.020Z,1019.36
2022-08-10T03:20:35.157Z,1019.35
2022-08-10T03:20:38.244Z,1019.34
2022-08-10T03:21:15.939Z,1019.34
2022-08-10T03:22:14.921Z,1019.30
2022-08-10T03:23:14.963Z,1019.31
2022-08-10T03:24:30.070Z,1019.27
2022-08-10T03:25:15.891Z,1019.32
2022-08-10T03:26:17.550Z,1019.30
2022-08-10T03:27:15.877Z,1019.30
2022-08-10T03:28:18.176Z,1019.32
2022-08-10T03:29:15.845Z,1019.31
2022-08-10T03:30:29.627Z,1019.30
2022-08-10T03:31:15.828Z,1019.32
2022-08-10T03:32:14.812Z,1019.32
2022-08-10T03:33:14.884Z,1019.34
2022-08-10T03:34:22.287Z,1019.34
2022-08-10T03:35:15.811Z,1019.34
2022-08-10T03:36:41.332Z,1019.35
2022-08-10T03:37:15.731Z,1019.33
2022-08-10T03:38:14.777Z,1019.32
2022-08-10T03:39:14.744Z,1019.32
2022-08-10T03:40:14.723Z,1019.33
2022-08-10T03:41:16.182Z,1019.36
2022-08-10T03:42:14.677Z,1019.33
2022-08-10T03:43:14.717Z,1019.35
2022-08-10T03:44:14.687Z,1019.38
2022-08-10T03:45:14.667Z,1019.33
2022-08-10T03:46:14.644Z,1019.37
2022-08-10T03:47:16.156Z,1019.35
2022-08-10T03:48:14.667Z,1019.35
2022-08-10T03:49:14.610Z,1019.33
2022-08-10T03:50:27.906Z,1019.37
2022-08-10T03:51:15.599Z,1019.31
2022-08-10T03:52:14.572Z,1019.34
2022-08-10T03:53:25.344Z,1019.37
2022-08-10T03:54:15.545Z,1019.37
2022-08-10T03:56:27.315Z,1019.38
2022-08-10T03:56:30.055Z,1019.40
2022-08-10T03:57:15.515Z,1019.36
2022-08-10T03:58:14.553Z,1019.36
2022-08-10T03:59:14.492Z,1019.40
2022-08-10T04:00:14.483Z,1019.42
2022-08-10T04:01:14.562Z,1019.41
2022-08-10T04:02:45.114Z,1019.42
2022-08-10T04:03:15.492Z,1019.42
2022-08-10T04:04:18.938Z,1019.45
2022-08-10T04:05:15.417Z,1019.44
2022-08-10T04:06:14.408Z,1019.42
2022-08-10T04:07:14.403Z,1019.38
2022-08-10T04:08:14.426Z,1019.38
2022-08-10T04:09:14.380Z,1019.38
2022-08-10T04:10:14.354Z,1019.38
2022-08-10T04:11:14.343Z,1019.41
2022-08-10T04:12:14.356Z,1019.43
2022-08-10T04:13:14.334Z,1019.46
2022-08-10T04:14:38.761Z,1019.47
2022-08-10T04:15:15.307Z,1019.48
2022-08-10T04:16:14.293Z,1019.48
2022-08-10T04:17:14.359Z,1019.50
2022-08-10T04:18:14.273Z,1019.51
2022-08-10T04:19:14.325Z,1019.44
2022-08-10T04:20:14.242Z,1019.48
2022-08-10T04:21:14.233Z,1019.51
2022-08-10T04:22:14.337Z,1019.52
2022-08-10T04:23:14.223Z,1019.55
2022-08-10T04:24:26.238Z,1019.49
2022-08-10T04:25:15.192Z,1019.48
2022-08-10T04:26:14.189Z,1019.53
2022-08-10T04:27:14.195Z,1019.53
2022-08-10T04:28:14.145Z,1019.56
2022-08-10T04:29:14.204Z,1019.55
2022-08-10T04:30:14.135Z,1019.55
2022-08-10T04:31:14.126Z,1019.55
2022-08-10T04:32:14.123Z,1019.55
2022-08-10T04:33:14.109Z,1019.56
2022-08-10T04:34:14.117Z,1019.54
2022-08-10T04:35:14.073Z,1019.58
2022-08-10T04:36:14.059Z,1019.58
2022-08-10T04:37:14.051Z,1019.53
2022-08-10T04:38:14.052Z,1019.59
2022-08-10T04:39:14.167Z,1019.59
2022-08-10T04:40:28.518Z,1019.57
2022-08-10T04:41:15.017Z,1019.59
2022-08-10T04:42:13.994Z,1019.55
2022-08-10T04:43:13.985Z,1019.60
2022-08-10T04:44:14.034Z,1019.58
2022-08-10T04:45:13.972Z,1019.59
2022-08-10T04:46:14.102Z,1019.56
2022-08-10T04:47:16.877Z,1019.57
2022-08-10T04:48:42.717Z,1019.57
2022-08-10T04:49:55.096Z,1019.63
2022-08-10T04:50:14.901Z,1019.57
2022-08-10T04:51:18.091Z,1019.60
2022-08-10T04:52:13.876Z,1019.59
2022-08-10T04:53:13.876Z,1019.64
2022-08-10T04:54:15.920Z,1019.62
2022-08-10T04:55:13.856Z,1019.61
2022-08-10T04:56:13.821Z,1019.58
2022-08-10T04:57:13.843Z,1019.58
2022-08-10T04:58:13.820Z,1019.54
2022-08-10T04:59:13.860Z,1019.56
2022-08-10T05:00:17.971Z,1019.60
2022-08-10T05:01:14.843Z,1019.57
2022-08-10T05:02:30.668Z,1019.55
2022-08-10T05:03:14.760Z,1019.59
2022-08-10T05:04:34.658Z,1019.59
2022-08-10T05:05:14.734Z,1019.58
2022-08-10T05:06:13.708Z,1019.59
2022-08-10T05:07:16.947Z,1019.63
2022-08-10T05:08:13.679Z,1019.59
2022-08-10T05:09:13.743Z,1019.64
2022-08-10T05:10:13.734Z,1019.68
2022-08-10T05:11:24.202Z,1019.64
2022-08-10T05:12:14.654Z,1019.61
2022-08-10T05:13:13.634Z,1019.61
2022-08-10T05:14:13.666Z,1019.60
2022-08-10T05:15:13.619Z,1019.59
2022-08-10T05:16:20.559Z,1019.61
2022-08-10T05:17:14.600Z,1019.58
2022-08-10T05:18:13.611Z,1019.60
2022-08-10T05:19:13.626Z,1019.61
2022-08-10T05:20:13.550Z,1019.60
2022-08-10T05:22:02.462Z,1019.63
2022-08-10T05:22:14.539Z,1019.62
2022-08-10T05:23:13.523Z,1019.58
2022-08-10T05:24:13.553Z,1019.65
2022-08-10T05:25:13.518Z,1019.69
2022-08-10T05:26:13.487Z,1019.70
2022-08-10T05:27:13.527Z,1019.70
2022-08-10T05:28:13.478Z,1019.70
2022-08-10T05:29:13.514Z,1019.64
2022-08-10T05:30:13.473Z,1019.71
2022-08-10T05:31:14.657Z,1019.74
2022-08-10T05:32:14.428Z,1019.76
2022-08-10T05:33:13.400Z,1019.71
2022-08-10T05:34:20.354Z,1019.73
2022-08-10T05:35:14.393Z,1019.77
2022-08-10T05:36:13.383Z,1019.71
2022-08-10T05:38:09.993Z,1019.74
2022-08-10T05:38:15.069Z,1019.67
2022-08-10T05:39:13.424Z,1019.68
2022-08-10T05:40:13.352Z,1019.70
2022-08-10T05:41:13.335Z,1019.70
2022-08-10T05:42:13.317Z,1019.72
2022-08-10T05:43:13.322Z,1019.72
2022-08-10T05:44:13.317Z,1019.72
2022-08-10T05:45:13.294Z,1019.75
2022-08-10T05:46:17.476Z,1019.70
2022-08-10T05:47:14.267Z,1019.72
2022-08-10T05:48:54.752Z,1019.75
2022-08-10T05:49:14.309Z,1019.76
2022-08-10T05:50:13.227Z,1019.78
2022-08-10T05:51:13.222Z,1019.78
2022-08-10T05:52:13.188Z,1019.78
2022-08-10T05:54:02.722Z,1019.79
2022-08-10T05:54:14.191Z,1019.77
2022-08-10T05:55:13.232Z,1019.77
2022-08-10T05:56:13.156Z,1019.81
2022-08-10T05:57:13.155Z,1019.85
2022-08-10T05:58:13.135Z,1019.90
2022-08-10T05:59:13.105Z,1019.88
2022-08-10T06:00:37.164Z,1019.92
2022-08-10T06:01:14.196Z,1019.91
2022-08-10T06:02:32.958Z,1019.92
2022-08-10T06:03:14.061Z,1019.90
2022-08-10T06:04:13.036Z,1019.91
2022-08-10T06:05:13.103Z,1019.92
2022-08-10T06:06:13.033Z,1019.87
2022-08-10T06:07:13.066Z,1019.91
2022-08-10T06:08:13.016Z,1019.89
2022-08-10T06:09:13.015Z,1019.87
2022-08-10T06:10:13.042Z,1019.87
2022-08-10T06:12:26.637Z,1019.89
2022-08-10T06:12:28.160Z,1019.91
2022-08-10T06:13:30.069Z,1019.91
2022-08-10T06:14:16.543Z,1019.94
2022-08-10T06:15:21.537Z,1019.96
2022-08-10T06:16:13.921Z,1019.94
2022-08-10T06:17:12.916Z,1019.96
2022-08-10T06:18:12.886Z,1019.98
2022-08-10T06:19:14.695Z,1019.99
2022-08-10T06:20:12.887Z,1020.00
2022-08-10T06:21:12.869Z,1019.99
2022-08-10T06:22:12.856Z,1019.99
2022-08-10T06:23:12.871Z,1019.96
2022-08-10T06:24:12.835Z,1020.00
2022-08-10T06:25:51.144Z,1020.00
2022-08-10T06:26:16.491Z,1019.94
2022-08-10T06:27:13.792Z,1019.96
2022-08-10T06:28:12.784Z,1020.00
2022-08-10T06:29:12.760Z,1019.99
2022-08-10T06:30:19.940Z,1019.98
2022-08-10T06:31:13.732Z,1020.04
2022-08-10T06:32:12.737Z,1020.02
2022-08-10T06:33:12.725Z,1020.01
2022-08-10T06:34:12.698Z,1020.01
2022-08-10T06:35:12.747Z,1019.98
2022-08-10T06:36:12.694Z,1019.97
2022-08-10T06:37:12.693Z,1019.97
2022-08-10T06:38:12.659Z,1019.97
2022-08-10T06:39:32.461Z,1019.96
2022-08-10T06:40:13.723Z,1020.00
2022-08-10T06:41:14.717Z,1019.99
2022-08-10T06:42:14.747Z,1019.99
2022-08-10T06:43:12.595Z,1019.99
2022-08-10T06:44:13.426Z,1020.01
2022-08-10T06:45:12.655Z,1020.01
2022-08-10T06:46:12.577Z,1020.00
2022-08-10T06:47:12.568Z,1020.03
2022-08-10T06:48:12.536Z,1020.02
2022-08-10T06:49:12.539Z,1020.00
2022-08-10T06:50:12.599Z,1020.03
2022-08-10T06:51:12.527Z,1020.02
2022-08-10T06:52:16.327Z,1019.96
2022-08-10T06:53:13.479Z,1020.02
2022-08-10T06:54:12.491Z,1020.04
2022-08-10T06:55:12.544Z,1020.01
2022-08-10T06:56:12.490Z,1020.03
2022-08-10T06:57:19.590Z,1019.97
2022-08-10T06:58:13.439Z,1020.04
2022-08-10T06:59:13.297Z,1020.03
2022-08-10T07:00:17.121Z,1019.99
2022-08-10T07:01:13.436Z,1019.98
2022-08-10T07:02:12.410Z,1020.03
2022-08-10T07:03:12.387Z,1019.98
2022-08-10T07:04:12.411Z,1019.98
2022-08-10T07:05:12.407Z,1019.97
2022-08-10T07:06:12.339Z,1020.00
2022-08-10T07:07:12.327Z,1020.02
2022-08-10T07:08:12.339Z,1019.95
2022-08-10T07:09:12.350Z,1019.98
2022-08-10T07:10:12.334Z,1019.98
2022-08-10T07:11:12.312Z,1020.00
2022-08-10T07:12:12.299Z,1019.91
2022-08-10T07:13:12.289Z,1019.95
2022-08-10T07:14:16.843Z,1019.91
2022-08-10T07:15:13.320Z,1019.95
2022-08-10T07:16:12.249Z,1019.91
2022-08-10T07:17:15.836Z,1019.87
2022-08-10T07:18:12.260Z,1019.87
2022-08-10T07:19:12.225Z,1019.90
2022-08-10T07:20:12.258Z,1019.89
2022-08-10T07:21:12.205Z,1019.93
2022-08-10T07:23:50.807Z,1019.87
2022-08-10T07:23:57.273Z,1019.92
2022-08-10T07:24:13.154Z,1019.95
2022-08-10T07:25:12.214Z,1019.93
2022-08-10T07:26:12.125Z,1019.94
2022-08-10T07:27:12.103Z,1019.95
2022-08-10T07:28:12.110Z,1019.99
2022-08-10T07:29:53.092Z,1019.96
2022-08-10T07:30:13.129Z,1019.98
2022-08-10T07:31:29.576Z,1019.93
2022-08-10T07:32:13.096Z,1020.00
2022-08-10T07:33:12.053Z,1019.96
2022-08-10T07:34:12.030Z,1019.93
2022-08-10T07:35:13.057Z,1019.98
2022-08-10T07:36:12.083Z,1019.99
2022-08-10T07:37:12.010Z,1019.98
2022-08-10T07:38:12.009Z,1020.00
2022-08-10T07:39:12.028Z,1020.02
2022-08-10T07:40:12.060Z,1020.02
2022-08-10T07:41:11.979Z,1020.02
2022-08-10T07:42:11.968Z,1020.03
2022-08-10T07:43:11.949Z,1020.07
2022-08-10T07:44:11.926Z,1020.09
2022-08-10T07:45:11.971Z,1020.02
2022-08-10T07:46:11.901Z,1020.01
2022-08-10T07:47:11.880Z,1020.04
2022-08-10T07:48:11.914Z,1020.02
2022-08-10T07:49:15.245Z,1020.06
2022-08-10T07:50:12.938Z,1020.03
2022-08-10T07:51:11.870Z,1019.99
2022-08-10T07:52:11.859Z,1020.03
2022-08-10T07:53:11.830Z,1020.02
2022-08-10T07:54:11.843Z,1020.06
2022-08-10T07:55:11.821Z,1020.06
2022-08-10T07:56:26.301Z,1020.01
2022-08-10T07:57:12.826Z,1020.04
2022-08-10T07:58:12.775Z,1020.01
2022-08-10T07:59:11.770Z,1020.01
2022-08-10T08:00:11.780Z,1019.97
2022-08-10T08:01:11.797Z,1020.02
2022-08-10T08:02:11.811Z,1020.07
2022-08-10T08:03:11.712Z,1020.01
2022-08-10T08:04:12.181Z,1020.02
2022-08-10T08:05:11.793Z,1020.04
2022-08-10T08:06:12.711Z,1020.01
2022-08-10T08:07:11.663Z,1020.06
2022-08-10T08:08:11.707Z,1020.05
2022-08-10T08:09:11.646Z,1019.98
2022-08-10T08:10:11.674Z,1019.97
2022-08-10T08:11:25.783Z,1019.98
2022-08-10T08:12:12.645Z,1020.01
2022-08-10T08:13:11.618Z,1019.97
2022-08-10T08:14:11.633Z,1019.99
2022-08-10T08:16:14.527Z,1020.00
2022-08-10T08:16:17.879Z,1020.03
2022-08-10T08:17:12.577Z,1019.99
2022-08-10T08:18:11.552Z,1019.98
2022-08-10T08:19:28.458Z,1020.00
2022-08-10T08:20:12.540Z,1020.02
2022-08-10T08:24:02.414Z,1019.99
2022-08-10T08:24:09.523Z,1019.93
2022-08-10T08:24:10.889Z,1020.03
2022-08-10T08:24:31.871Z,1019.98
2022-08-10T08:25:14.545Z,1020.01
2022-08-10T08:26:11.533Z,1019.99
2022-08-10T08:27:11.469Z,1020.00
2022-08-10T08:28:11.499Z,1019.95
2022-08-10T08:29:11.464Z,1019.99
2022-08-10T08:30:11.423Z,1019.99
2022-08-10T08:31:11.524Z,1019.96
2022-08-10T08:32:11.416Z,1019.96
2022-08-10T08:33:11.407Z,1019.99
2022-08-10T08:34:12.393Z,1019.97
2022-08-10T08:35:11.373Z,1020.05
2022-08-10T08:36:11.401Z,1020.01
2022-08-10T08:37:11.360Z,1020.05
2022-08-10T08:38:34.468Z,1020.05
2022-08-10T08:39:12.359Z,1019.99
2022-08-10T08:40:11.338Z,1020.01
2022-08-10T08:41:11.367Z,1019.99
2022-08-10T08:42:11.310Z,1020.02
2022-08-10T08:43:11.295Z,1020.02
2022-08-10T08:44:11.278Z,1020.05
2022-08-10T08:45:11.253Z,1020.02
2022-08-10T08:46:11.322Z,1020.08
2022-08-10T08:48:02.092Z,1020.01
2022-08-10T08:48:12.226Z,1020.03
2022-08-10T08:49:11.228Z,1020.02
2022-08-10T08:50:11.200Z,1019.97
2022-08-10T08:51:11.226Z,1020.03
2022-08-10T08:52:18.233Z,1020.01
2022-08-10T08:53:21.443Z,1019.98
2022-08-10T08:54:12.154Z,1019.95
2022-08-10T08:56:01.394Z,1019.98
2022-08-10T08:56:12.217Z,1019.93
2022-08-10T08:57:11.138Z,1019.91
2022-08-10T08:58:11.149Z,1019.95
2022-08-10T08:59:11.084Z,1020.01
2022-08-10T09:00:13.385Z,1019.99
2022-08-10T09:01:11.186Z,1020.00
2022-08-10T09:02:11.162Z,1019.98
2022-08-10T09:03:11.077Z,1019.98
2022-08-10T09:04:20.044Z,1019.96
2022-08-10T09:05:12.034Z,1019.96
2022-08-10T09:06:11.101Z,1019.96
2022-08-10T09:07:58.973Z,1019.86
2022-08-10T09:08:12.038Z,1019.88
2022-08-10T09:09:11.156Z,1019.86
2022-08-10T09:10:11.015Z,1019.88
2022-08-10T09:11:11.052Z,1019.89
2022-08-10T09:12:10.995Z,1019.89
2022-08-10T09:13:10.992Z,1019.89
2022-08-10T09:14:10.983Z,1019.86
2022-08-10T09:15:10.920Z,1019.87
2022-08-10T09:16:12.007Z,1019.86
2022-08-10T09:17:10.932Z,1019.87
2022-08-10T09:18:10.936Z,1019.85
2022-08-10T09:19:10.903Z,1019.87
2022-08-10T09:20:11.879Z,1019.88
2022-08-10T09:21:10.908Z,1019.84
2022-08-10T09:22:17.316Z,1019.85
2022-08-10T09:23:11.856Z,1019.89
2022-08-10T09:24:10.853Z,1019.86
2022-08-10T09:25:10.848Z,1019.88
2022-08-10T09:26:10.879Z,1019.83
2022-08-10T09:27:10.855Z,1019.86
2022-08-10T09:28:10.822Z,1019.83
2022-08-10T09:29:12.957Z,1019.88
2022-08-10T09:30:10.786Z,1019.85
2022-08-10T09:31:21.904Z,1019.85
2022-08-10T09:36:13.511Z,1019.86
2022-08-10T09:36:19.403Z,1019.83
2022-08-10T09:36:22.448Z,1019.79
2022-08-10T09:36:23.613Z,1019.79
2022-08-10T09:36:26.173Z,1019.85
2022-08-10T09:37:11.735Z,1019.83
2022-08-10T09:38:10.702Z,1019.80
2022-08-10T09:39:10.726Z,1019.82
2022-08-10T09:40:59.813Z,1019.79
2022-08-10T09:41:13.534Z,1019.76
2022-08-10T09:42:14.975Z,1019.76
2022-08-10T09:43:26.161Z,1019.82
2022-08-10T09:44:11.663Z,1019.81
2022-08-10T09:45:10.661Z,1019.81
2022-08-10T09:46:11.843Z,1019.77
2022-08-10T09:47:10.632Z,1019.82
2022-08-10T09:48:10.625Z,1019.74
2022-08-10T09:49:10.582Z,1019.79
2022-08-10T09:50:11.584Z,1019.81
2022-08-10T09:52:11.571Z,1019.78
2022-08-10T09:53:10.568Z,1019.78
2022-08-10T09:54:10.565Z,1019.76
2022-08-10T09:55:10.570Z,1019.80
2022-08-10T09:56:19.295Z,1019.76
2022-08-10T09:57:43.203Z,1019.77
2022-08-10T09:58:11.506Z,1019.78
2022-08-10T09:59:29.203Z,1019.69
2022-08-10T10:00:11.498Z,1019.73
2022-08-10T10:01:10.513Z,1019.70
2022-08-10T10:02:11.477Z,1019.73
2022-08-10T10:03:10.524Z,1019.71
2022-08-10T10:04:10.470Z,1019.73
2022-08-10T10:05:10.453Z,1019.71
2022-08-10T10:06:10.486Z,1019.70
2022-08-10T10:07:10.474Z,1019.72
2022-08-10T10:08:10.416Z,1019.65
2022-08-10T10:09:10.910Z,1019.67
2022-08-10T10:10:10.383Z,1019.64
2022-08-10T10:11:10.411Z,1019.62
2022-08-10T10:12:10.370Z,1019.61
2022-08-10T10:13:10.377Z,1019.65
2022-08-10T10:14:12.417Z,1019.63
2022-08-10T10:15:10.316Z,1019.66
2022-08-10T10:16:11.394Z,1019.66
2022-08-10T10:17:10.331Z,1019.62
2022-08-10T10:18:10.322Z,1019.64
2022-08-10T10:19:10.304Z,1019.59
2022-08-10T10:20:10.280Z,1019.64
2022-08-10T10:21:10.280Z,1019.60
2022-08-10T10:22:11.329Z,1019.56
2022-08-10T10:23:10.264Z,1019.58
2022-08-10T10:24:20.509Z,1019.53
2022-08-10T10:25:19.893Z,1019.55
2022-08-10T10:26:18.324Z,1019.52
2022-08-10T10:27:16.636Z,1019.49
2022-08-10T10:28:11.226Z,1019.48
2022-08-10T10:29:37.699Z,1019.49
2022-08-10T10:30:11.189Z,1019.35
2022-08-10T10:31:16.599Z,1019.44
2022-08-10T10:32:11.233Z,1019.42
2022-08-10T10:33:13.138Z,1019.37
2022-08-10T10:34:10.169Z,1019.43
2022-08-10T10:35:10.169Z,1019.48
2022-08-10T10:36:10.182Z,1019.44
2022-08-10T10:37:10.169Z,1019.46
2022-08-10T10:38:10.365Z,1019.50
2022-08-10T10:39:10.192Z,1019.41
2022-08-10T10:40:10.113Z,1019.41
2022-08-10T10:41:10.130Z,1019.42
2022-08-10T10:42:23.264Z,1019.39
2022-08-10T10:43:11.064Z,1019.39
2022-08-10T10:44:10.056Z,1019.42
2022-08-10T10:45:10.092Z,1019.40
2022-08-10T10:46:10.109Z,1019.39
2022-08-10T10:47:10.077Z,1019.38
2022-08-10T10:48:10.029Z,1019.37
2022-08-10T10:49:11.019Z,1019.35
2022-08-10T10:50:10.018Z,1019.31
2022-08-10T10:51:10.841Z,1019.28
2022-08-10T10:52:10.045Z,1019.26
2022-08-10T10:53:09.987Z,1019.26
2022-08-10T10:54:09.995Z,1019.24
2022-08-10T10:55:09.959Z,1019.27
2022-08-10T10:56:15.475Z,1019.28
2022-08-10T10:57:10.985Z,1019.24
2022-08-10T10:58:09.940Z,1019.26
2022-08-10T10:59:16.027Z,1019.25
2022-08-10T11:00:10.949Z,1019.29
2022-08-10T11:01:09.941Z,1019.27
2022-08-10T11:02:09.947Z,1019.23
2022-08-10T11:03:09.897Z,1019.30
2022-08-10T11:04:09.877Z,1019.26
2022-08-10T11:05:09.919Z,1019.19
2022-08-10T11:06:09.924Z,1019.22
2022-08-10T11:07:09.905Z,1019.21
2022-08-10T11:08:09.838Z,1019.14
2022-08-10T11:09:09.853Z,1019.16
2022-08-10T11:10:33.327Z,1019.14
2022-08-10T11:11:14.343Z,1019.14
2022-08-10T11:12:10.869Z,1019.14
2022-08-10T11:14:25.777Z,1019.12
2022-08-10T11:14:27.236Z,1019.17
2022-08-10T11:15:10.775Z,1019.16
2022-08-10T11:16:09.749Z,1019.07
2022-08-10T11:17:09.783Z,1019.12
2022-08-10T11:18:09.737Z,1019.07
2022-08-10T11:19:09.741Z,1019.08
2022-08-10T11:20:09.753Z,1019.05
2022-08-10T11:21:09.757Z,1019.05
2022-08-10T11:22:14.526Z,1019.05
2022-08-10T11:23:10.721Z,1019.00
2022-08-10T11:24:42.822Z,1019.04
2022-08-10T11:25:10.680Z,1019.04
2022-08-10T11:26:09.703Z,1019.04
2022-08-10T11:27:09.730Z,1019.01
2022-08-10T11:28:10.668Z,1018.96
2022-08-10T11:29:09.693Z,1019.02
2022-08-10T11:30:09.707Z,1019.00
2022-08-10T11:31:09.650Z,1018.99
2022-08-10T11:32:09.657Z,1018.99
2022-08-10T11:33:10.624Z,1019.02
2022-08-10T11:34:48.341Z,1019.04
2022-08-10T11:35:12.678Z,1019.05
2022-08-10T11:36:09.574Z,1019.03
2022-08-10T11:37:09.621Z,1018.99
2022-08-10T11:38:30.297Z,1019.02
2022-08-10T11:39:14.409Z,1019.01
2022-08-10T11:40:09.689Z,1018.99
2022-08-10T11:42:05.819Z,1019.04
2022-08-10T11:42:21.278Z,1019.03
2022-08-10T11:43:10.523Z,1019.03
2022-08-10T11:44:09.531Z,1019.04
2022-08-10T11:45:09.497Z,1019.01
2022-08-10T11:46:09.477Z,1018.84
2022-08-10T11:47:09.514Z,1018.88
2022-08-10T11:48:09.480Z,1018.88
2022-08-10T11:49:09.510Z,1018.92
2022-08-10T11:50:09.489Z,1018.88
2022-08-10T11:51:09.449Z,1018.75
2022-08-10T11:52:09.511Z,1018.77
2022-08-10T11:53:09.441Z,1018.77
2022-08-10T11:54:09.417Z,1018.87
2022-08-10T11:55:09.411Z,1018.88
2022-08-10T11:56:11.141Z,1018.86
2022-08-10T11:57:09.444Z,1018.91
2022-08-10T11:58:09.385Z,1018.92
2022-08-10T11:59:17.147Z,1018.97
2022-08-10T12:00:10.343Z,1019.01
2022-08-10T12:01:09.353Z,1018.89
2022-08-10T12:02:09.458Z,1018.92
2022-08-10T12:03:09.415Z,1018.92
2022-08-10T12:04:12.201Z,1018.89
2022-08-10T12:05:09.301Z,1018.87
2022-08-10T12:06:09.307Z,1018.88